Главная страница
METAR-TAF:

METAR-TAF

Аэропорты :

Елливаре, Швеция

широта: 67-09N, долгота: 020-39E, высота над уровнем моря: 359 м

Текущие метеонаблюдения

Эта сводка был подготовлена 38 минут назад, в 14:20 UTC
Ветер 4 Узел от восточный, изменяющийся между северо-западный и юго-восточный
Температура 16°C
Влажность 45%
Давление 1012 hPa
Видимость 10 км и более

METAR: ESNG 221420Z AUTO 08004KT 320V140 9999 SCT051/// OVC061/// 16/04 Q1012

Время: 16:58 (14:58 UTC)


TAF: отсутствует

Метеонаблюдения и прогнозы для более 4000 аэропортов (сводки METAR и TAF).

Имеющиеся станции представлены на карте желтыми и красными точками.

Чтобы увидеть название станции, наведите на нее мышь.

Затем щелкните, чтобы увидеть метеонаблюдения и метеопрогнозы.

Управление картой: чтобы увеличить масштаб, щелкните зеленые кнопки с черным крестиком; чтобы уменьшить масштаб, щелкните зеленую кнопку с тире; для просмотра соседних карт щелкайте зеленые стрелки.


METAR-TAF: